createdAt,value
2018-03-01T00:02:18.685Z,87.90
2018-03-01T00:04:46.298Z,87.60
2018-03-01T00:07:13.919Z,87.60
2018-03-01T00:09:41.530Z,87.40
2018-03-01T00:12:09.142Z,87.30
2018-03-01T00:14:36.761Z,87.20
2018-03-01T00:17:04.378Z,87.50
2018-03-01T00:19:32.028Z,87.80
2018-03-01T00:21:59.646Z,88.00
2018-03-01T00:24:27.267Z,87.90
2018-03-01T00:26:54.880Z,88.20
2018-03-01T00:29:22.498Z,88.30
2018-03-01T00:31:50.182Z,88.50
2018-03-01T00:34:17.799Z,88.50
2018-03-01T00:36:46.184Z,88.50
2018-03-01T00:39:14.566Z,88.50
2018-03-01T00:41:42.990Z,88.50
2018-03-01T00:44:10.606Z,88.40
2018-03-01T00:46:38.227Z,88.60
2018-03-01T00:49:05.850Z,89.40
2018-03-01T00:51:34.231Z,89.00
2018-03-01T00:54:02.606Z,89.00
2018-03-01T00:56:30.222Z,89.00
2018-03-01T00:58:57.838Z,89.20
2018-03-01T01:01:25.454Z,89.20
2018-03-01T01:03:53.072Z,89.20
2018-03-01T01:06:21.462Z,89.50
2018-03-01T01:08:49.910Z,89.60
2018-03-01T01:11:17.526Z,89.50
2018-03-01T01:13:45.143Z,89.80
2018-03-01T01:16:12.759Z,90.00
2018-03-01T01:18:40.374Z,90.10
2018-03-01T01:21:07.994Z,90.10
2018-03-01T01:23:35.606Z,90.00
2018-03-01T01:26:03.221Z,90.00
2018-03-01T01:28:30.859Z,90.10
2018-03-01T01:30:58.475Z,90.10
2018-03-01T01:33:26.099Z,90.20
2018-03-01T01:35:54.503Z,90.10
2018-03-01T01:38:22.123Z,90.10
2018-03-01T01:40:49.738Z,90.10
2018-03-01T01:43:17.346Z,90.10
2018-03-01T01:45:45.027Z,90.10
2018-03-01T01:48:12.651Z,90.20
2018-03-01T01:50:52.187Z,90.30
2018-03-01T01:53:19.798Z,90.70
2018-03-01T01:55:47.422Z,90.40
2018-03-01T01:58:15.054Z,90.50
2018-03-01T02:00:43.443Z,90.40
2018-03-01T02:03:11.062Z,90.40
2018-03-01T02:05:38.679Z,90.40
2018-03-01T02:08:06.296Z,90.50
2018-03-01T02:10:33.910Z,90.50
2018-03-01T02:13:01.528Z,90.60
2018-03-01T02:15:29.137Z,90.60
2018-03-01T02:17:56.750Z,90.60
2018-03-01T02:20:24.382Z,90.50
2018-03-01T02:22:52.030Z,90.50
2018-03-01T02:25:19.650Z,90.60
2018-03-01T02:27:47.266Z,90.70
2018-03-01T02:30:21.638Z,90.70
2018-03-01T02:32:49.317Z,90.70
2018-03-01T02:35:16.939Z,90.60
2018-03-01T02:37:44.564Z,91.00
2018-03-01T02:40:12.944Z,91.20
2018-03-01T02:42:41.398Z,91.20
2018-03-01T02:45:09.014Z,91.10
2018-03-01T02:47:36.633Z,91.00
2018-03-01T02:50:04.246Z,90.90
2018-03-01T02:52:31.869Z,91.10
2018-03-01T02:54:59.492Z,91.40
2018-03-01T02:57:27.130Z,91.40
2018-03-01T02:59:55.515Z,91.40
2018-03-01T03:02:23.900Z,91.40
2018-03-01T03:04:51.514Z,91.40
2018-03-01T03:07:19.135Z,91.50
2018-03-01T03:09:46.815Z,91.60
2018-03-01T03:12:14.426Z,91.60
2018-03-01T03:14:42.047Z,91.90
2018-03-01T03:17:09.668Z,91.80
2018-03-01T03:19:37.286Z,91.90
2018-03-01T03:22:04.907Z,92.00
2018-03-01T03:24:33.281Z,92.10
2018-03-01T03:27:00.899Z,91.90
2018-03-01T03:29:28.514Z,91.80
2018-03-01T03:31:56.135Z,91.90
2018-03-01T03:34:23.754Z,91.90
2018-03-01T03:36:52.137Z,91.90
2018-03-01T03:39:20.523Z,92.00
2018-03-01T03:41:48.907Z,91.90
2018-03-01T03:44:17.296Z,92.00
2018-03-01T03:46:45.684Z,92.00
2018-03-01T03:49:13.314Z,92.00
2018-03-01T03:51:40.930Z,92.00
2018-03-01T03:54:08.546Z,91.70
2018-03-01T03:56:36.167Z,91.70
2018-03-01T03:59:03.789Z,92.00
2018-03-01T04:01:31.406Z,92.00
2018-03-01T04:03:59.023Z,91.90
2018-03-01T04:06:27.415Z,92.20
2018-03-01T04:08:55.799Z,92.20
2018-03-01T04:11:24.184Z,92.30
2018-03-01T04:13:52.578Z,92.10
2018-03-01T04:16:20.194Z,92.10
2018-03-01T04:18:47.810Z,92.00
2018-03-01T04:21:15.504Z,92.10
2018-03-01T04:23:43.123Z,91.70
2018-03-01T04:26:11.523Z,92.10
2018-03-01T04:28:39.199Z,92.00
2018-03-01T04:31:06.819Z,92.00
2018-03-01T04:33:34.438Z,92.00
2018-03-01T04:36:02.087Z,91.90
2018-03-01T04:38:29.713Z,91.90
2018-03-01T04:40:57.303Z,92.00
2018-03-01T04:43:25.662Z,92.00
2018-03-01T04:45:53.250Z,92.00
2018-03-01T04:48:21.611Z,91.90
2018-03-01T04:50:49.199Z,91.90
2018-03-01T04:53:17.554Z,92.10
2018-03-01T04:55:45.185Z,92.10
2018-03-01T04:58:12.771Z,91.90
2018-03-01T05:00:40.382Z,91.70
2018-03-01T05:03:08.739Z,91.90
2018-03-01T05:05:36.328Z,91.90
2018-03-01T05:08:04.683Z,91.90
2018-03-01T05:10:32.323Z,91.90
2018-03-01T05:13:00.678Z,92.40
2018-03-01T05:15:28.267Z,92.40
2018-03-01T05:17:55.855Z,92.90
2018-03-01T05:20:23.445Z,93.10
2018-03-01T05:22:51.794Z,93.30
2018-03-01T05:25:19.388Z,93.20
2018-03-01T05:27:47.751Z,93.30
2018-03-01T05:30:15.342Z,93.30
2018-03-01T05:32:43.705Z,93.50
2018-03-01T05:35:11.304Z,93.50
2018-03-01T05:37:38.895Z,93.50
2018-03-01T05:40:06.483Z,93.50
2018-03-01T05:42:34.222Z,93.60
2018-03-01T05:45:01.811Z,93.60
2018-03-01T05:47:29.403Z,93.60
2018-03-01T05:49:56.994Z,93.60
2018-03-01T05:52:24.590Z,93.70
2018-03-01T05:54:52.174Z,93.80
2018-03-01T05:57:19.771Z,93.80
2018-03-01T05:59:48.123Z,93.90
2018-03-01T06:02:15.735Z,93.90
2018-03-01T06:04:43.322Z,93.80
2018-03-01T06:07:10.916Z,93.80
2018-03-01T06:09:38.507Z,93.80
2018-03-01T06:12:06.864Z,94.10
2018-03-01T06:14:34.455Z,94.00
2018-03-01T06:17:02.048Z,94.00
2018-03-01T06:19:29.640Z,94.10
2018-03-01T06:21:57.230Z,94.10
2018-03-01T06:24:24.823Z,94.10
2018-03-01T06:26:53.178Z,94.00
2018-03-01T06:29:20.780Z,93.90
2018-03-01T06:31:48.375Z,93.90
2018-03-01T06:34:16.023Z,93.80
2018-03-01T06:36:43.615Z,93.70
2018-03-01T06:39:11.207Z,93.80
2018-03-01T06:41:38.797Z,93.70
2018-03-01T06:44:07.154Z,93.70
2018-03-01T06:46:34.763Z,93.70
2018-03-01T06:49:02.352Z,93.70
2018-03-01T06:51:30.072Z,93.60
2018-03-01T06:53:58.437Z,93.40
2018-03-01T06:56:26.026Z,93.70
2018-03-01T06:58:54.378Z,93.10
2018-03-01T07:01:21.966Z,93.10
2018-03-01T07:03:50.322Z,93.10
2018-03-01T07:06:18.001Z,93.00
2018-03-01T07:08:46.401Z,92.90
2018-03-01T07:11:14.932Z,92.90
2018-03-01T07:13:43.327Z,92.90
2018-03-01T07:16:10.915Z,92.80
2018-03-01T07:18:38.506Z,92.70
2018-03-01T07:21:06.859Z,92.40
2018-03-01T07:23:34.446Z,92.30
2018-03-01T07:26:02.800Z,91.60
2018-03-01T07:28:30.434Z,91.60
2018-03-01T07:30:58.015Z,91.10
2018-03-01T07:33:25.602Z,90.50
2018-03-01T07:35:53.194Z,90.30
2018-03-01T07:38:21.547Z,89.50
2018-03-01T07:40:49.134Z,89.50
2018-03-01T07:43:17.486Z,87.90
2018-03-01T07:45:45.081Z,87.90
2018-03-01T07:48:13.440Z,87.10
2018-03-01T07:50:41.030Z,87.10
2018-03-01T07:53:09.383Z,86.10
2018-03-01T07:55:36.976Z,86.00
2018-03-01T07:58:05.339Z,83.60
2018-03-01T08:00:32.927Z,83.60
2018-03-01T08:03:01.274Z,83.50
2018-03-01T08:05:28.903Z,83.40
2018-03-01T08:07:56.490Z,82.50
2018-03-01T08:10:24.075Z,82.10
2018-03-01T08:12:51.664Z,81.80
2018-03-01T08:15:20.010Z,79.90
2018-03-01T08:17:47.599Z,79.80
2018-03-01T08:20:15.189Z,80.10
2018-03-01T08:22:42.807Z,79.00
2018-03-01T08:25:10.400Z,79.50
2018-03-01T08:27:38.807Z,78.10
2018-03-01T08:30:06.439Z,78.00
2018-03-01T08:32:34.029Z,77.10
2018-03-01T08:35:02.387Z,76.60
2018-03-01T08:37:30.005Z,76.60
2018-03-01T08:39:57.643Z,77.00
2018-03-01T08:42:26.001Z,76.50
2018-03-01T08:44:53.602Z,75.70
2018-03-01T08:47:21.191Z,74.70
2018-03-01T08:49:48.778Z,74.00
2018-03-01T08:52:16.370Z,74.40
2018-03-01T08:54:44.740Z,73.50
2018-03-01T08:57:12.341Z,73.50
2018-03-01T08:59:39.938Z,72.90
2018-03-01T09:02:07.521Z,72.30
2018-03-01T09:04:35.130Z,73.20
2018-03-01T09:07:02.752Z,73.70
2018-03-01T09:09:30.353Z,73.20
2018-03-01T09:11:57.988Z,72.30
2018-03-01T09:14:25.614Z,71.70
2018-03-01T09:16:53.239Z,70.40
2018-03-01T09:19:21.645Z,69.60
2018-03-01T09:21:49.986Z,69.30
2018-03-01T09:24:17.578Z,69.20
2018-03-01T09:26:45.926Z,68.30
2018-03-01T09:29:13.515Z,68.20
2018-03-01T09:31:41.871Z,67.30
2018-03-01T09:34:09.464Z,67.30
2018-03-01T09:36:37.819Z,66.40
2018-03-01T09:39:05.445Z,66.40
2018-03-01T09:41:33.034Z,66.90
2018-03-01T09:44:00.626Z,66.70
2018-03-01T09:46:28.210Z,66.20
2018-03-01T09:48:56.567Z,64.80
2018-03-01T09:51:24.159Z,64.80
2018-03-01T09:53:51.743Z,66.20
2018-03-01T09:56:19.330Z,65.70
2018-03-01T09:58:46.924Z,64.70
2018-03-01T10:01:14.518Z,63.90
2018-03-01T10:03:42.877Z,63.80
2018-03-01T10:06:10.471Z,63.70
2018-03-01T10:08:38.819Z,64.20
2018-03-01T10:11:06.415Z,64.10
2018-03-01T10:13:34.773Z,63.10
2018-03-01T10:16:02.404Z,63.10
2018-03-01T10:18:29.995Z,63.30
2018-03-01T10:20:57.588Z,63.80
2018-03-01T10:23:25.940Z,63.20
2018-03-01T10:25:53.583Z,63.20
2018-03-01T10:28:21.184Z,62.20
2018-03-01T10:30:48.962Z,61.60
2018-03-01T10:33:16.583Z,61.80
2018-03-01T10:35:44.215Z,61.00
2018-03-01T10:38:12.559Z,59.70
2018-03-01T10:40:40.155Z,59.70
2018-03-01T10:43:08.511Z,59.60
2018-03-01T10:45:36.103Z,59.60
2018-03-01T10:48:04.461Z,59.50
2018-03-01T10:50:32.051Z,59.40
2018-03-01T10:53:00.465Z,59.40
2018-03-01T10:55:28.057Z,58.80
2018-03-01T10:57:55.687Z,59.50
2018-03-01T11:00:28.955Z,58.90
2018-03-01T11:02:57.310Z,58.20
2018-03-01T11:05:24.899Z,58.10
2018-03-01T11:07:53.256Z,57.80
2018-03-01T11:10:20.868Z,57.80
2018-03-01T11:12:48.450Z,56.60
2018-03-01T11:15:16.039Z,56.40
2018-03-01T11:17:43.655Z,57.10
2018-03-01T11:20:11.263Z,56.40
2018-03-01T11:22:38.923Z,56.50
2018-03-01T11:25:06.537Z,56.70
2018-03-01T11:27:34.903Z,54.60
2018-03-01T11:30:02.507Z,54.60
2018-03-01T11:32:30.099Z,54.40
2018-03-01T11:34:57.691Z,54.00
2018-03-01T11:37:25.286Z,53.60
2018-03-01T11:39:53.642Z,54.50
2018-03-01T11:42:21.235Z,54.50
2018-03-01T11:44:49.591Z,54.40
2018-03-01T11:47:17.183Z,54.40
2018-03-01T11:49:44.766Z,54.60
2018-03-01T11:52:12.361Z,55.00
2018-03-01T11:54:39.971Z,54.80
2018-03-01T11:57:08.331Z,55.70
2018-03-01T11:59:35.923Z,55.70
2018-03-01T12:02:03.514Z,55.50
2018-03-01T12:04:31.103Z,54.70
2018-03-01T12:06:58.695Z,53.40
2018-03-01T12:09:26.283Z,53.00
2018-03-01T12:11:54.639Z,53.60
2018-03-01T12:14:22.230Z,53.60
2018-03-01T12:16:49.828Z,54.30
2018-03-01T12:19:17.415Z,52.70
2018-03-01T12:21:45.007Z,52.90
2018-03-01T12:24:13.364Z,54.60
2018-03-01T12:26:40.954Z,54.10
2018-03-01T12:29:09.311Z,53.20
2018-03-01T12:31:36.895Z,53.00
2018-03-01T12:34:04.490Z,53.60
2018-03-01T12:36:32.079Z,52.50
2018-03-01T12:38:59.675Z,53.30
2018-03-01T12:41:27.307Z,53.30
2018-03-01T12:43:54.896Z,52.90
2018-03-01T12:46:22.531Z,52.70
2018-03-01T12:48:50.143Z,52.00
2018-03-01T12:51:17.783Z,53.20
2018-03-01T12:53:45.387Z,52.40
2018-03-01T12:56:13.759Z,54.70
2018-03-01T12:58:41.367Z,54.50
2018-03-01T13:01:09.687Z,53.40
2018-03-01T13:03:37.291Z,53.40
2018-03-01T13:06:05.671Z,54.00
2018-03-01T13:08:33.283Z,53.90
2018-03-01T13:11:00.887Z,54.50
2018-03-01T13:13:28.491Z,54.10
2018-03-01T13:15:56.095Z,54.00
2018-03-01T13:18:23.698Z,54.40
2018-03-01T13:20:52.077Z,54.70
2018-03-01T13:23:20.476Z,55.10
2018-03-01T13:25:48.084Z,55.10
2018-03-01T13:28:15.682Z,55.40
2018-03-01T13:30:53.194Z,54.60
2018-03-01T13:33:37.304Z,55.10
2018-03-01T13:36:04.915Z,55.10
2018-03-01T13:38:32.519Z,55.10
2018-03-01T13:41:00.115Z,55.00
2018-03-01T13:43:29.127Z,55.00
2018-03-01T13:45:59.155Z,54.70
2018-03-01T13:48:26.761Z,54.70
2018-03-01T13:50:54.358Z,54.40
2018-03-01T13:53:21.976Z,53.60
2018-03-01T13:55:49.578Z,53.30
2018-03-01T13:58:17.171Z,54.20
2018-03-01T14:00:45.543Z,53.40
2018-03-01T14:03:13.914Z,53.80
2018-03-01T14:05:56.375Z,53.80
2018-03-01T14:08:23.978Z,54.00
2018-03-01T14:10:51.591Z,53.50
2018-03-01T14:13:21.772Z,53.20
2018-03-01T14:15:49.385Z,53.30
2018-03-01T14:18:22.452Z,53.50
2018-03-01T14:20:56.526Z,54.30
2018-03-01T14:23:27.911Z,54.30
2018-03-01T14:26:02.894Z,55.00
2018-03-01T14:28:36.099Z,55.00
2018-03-01T14:31:03.703Z,55.10
2018-03-01T14:33:32.053Z,54.50
2018-03-01T14:35:59.642Z,54.50
2018-03-01T14:38:27.995Z,55.50
2018-03-01T14:40:55.574Z,55.50
2018-03-01T14:43:23.158Z,54.70
2018-03-01T14:45:51.502Z,55.40
2018-03-01T14:48:19.091Z,55.40
2018-03-01T14:50:46.675Z,55.00
2018-03-01T14:53:15.023Z,55.80
2018-03-01T14:55:42.663Z,55.80
2018-03-01T14:58:10.247Z,57.20
2018-03-01T15:00:37.831Z,57.20
2018-03-01T15:03:05.422Z,57.20
2018-03-01T15:05:33.003Z,58.60
2018-03-01T15:08:00.591Z,57.80
2018-03-01T15:10:28.179Z,58.10
2018-03-01T15:12:55.758Z,58.10
2018-03-01T15:15:23.370Z,58.80
2018-03-01T15:17:50.962Z,58.80
2018-03-01T15:20:18.546Z,58.70
2018-03-01T15:22:46.147Z,58.80
2018-03-01T15:25:13.754Z,59.60
2018-03-01T15:27:41.437Z,59.30
2018-03-01T15:30:09.027Z,59.30
2018-03-01T15:32:37.388Z,59.60
2018-03-01T15:35:04.990Z,59.50
2018-03-01T15:37:32.650Z,60.70
2018-03-01T15:40:00.243Z,60.00
2018-03-01T15:42:27.843Z,60.20
2018-03-01T15:44:55.449Z,60.60
2018-03-01T15:47:23.139Z,61.50
2018-03-01T15:49:50.727Z,61.70
2018-03-01T15:52:18.312Z,61.30
2018-03-01T15:54:45.895Z,61.60
2018-03-01T15:57:13.483Z,61.80
2018-03-01T15:59:41.071Z,62.90
2018-03-01T16:02:08.658Z,62.90
2018-03-01T16:04:36.253Z,63.30
2018-03-01T16:07:04.622Z,64.80
2018-03-01T16:09:32.214Z,64.90
2018-03-01T16:12:00.558Z,65.60
2018-03-01T16:14:28.196Z,65.60
2018-03-01T16:16:55.806Z,65.90
2018-03-01T16:19:24.169Z,66.70
2018-03-01T16:21:51.754Z,66.70
2018-03-01T16:24:19.351Z,66.70
2018-03-01T16:26:46.959Z,66.80
2018-03-01T16:29:14.550Z,67.10
2018-03-01T16:31:42.916Z,68.00
2018-03-01T16:34:10.519Z,67.90
2018-03-01T16:36:38.112Z,67.90
2018-03-01T16:39:05.705Z,68.10
2018-03-01T16:41:33.303Z,68.50
2018-03-01T16:44:01.657Z,68.90
2018-03-01T16:46:29.243Z,68.80
2018-03-01T16:48:57.682Z,69.70
2018-03-01T16:51:26.048Z,69.50
2018-03-01T16:53:53.675Z,69.50
2018-03-01T16:56:22.033Z,70.10
2018-03-01T16:58:49.631Z,70.10
2018-03-01T17:01:18.004Z,70.60
2018-03-01T17:03:46.369Z,71.00
2018-03-01T17:06:13.956Z,70.90
2018-03-01T17:08:42.311Z,71.60
2018-03-01T17:11:09.894Z,71.60
2018-03-01T17:13:38.255Z,71.70
2018-03-01T17:16:05.866Z,71.60
2018-03-01T17:18:33.455Z,71.70
2018-03-01T17:21:01.043Z,72.10
2018-03-01T17:23:29.284Z,72.10
2018-03-01T17:25:56.966Z,72.70
2018-03-01T17:28:24.550Z,72.60
2018-03-01T17:30:52.130Z,72.60
2018-03-01T17:33:19.718Z,73.00
2018-03-01T17:35:48.069Z,73.20
2018-03-01T17:38:15.655Z,73.10
2018-03-01T17:40:43.244Z,73.30
2018-03-01T17:43:10.858Z,74.20
2018-03-01T17:45:38.442Z,74.00
2018-03-01T17:48:06.051Z,74.30
2018-03-01T17:50:33.731Z,74.20
2018-03-01T17:53:01.326Z,74.20
2018-03-01T17:55:28.914Z,74.30
2018-03-01T17:57:56.497Z,74.40
2018-03-01T18:00:24.898Z,74.80
2018-03-01T18:02:52.475Z,74.90
2018-03-01T18:05:20.058Z,75.10
2018-03-01T18:07:47.651Z,75.00
2018-03-01T18:10:15.239Z,75.00
2018-03-01T18:12:43.586Z,75.20
2018-03-01T18:15:11.174Z,75.20
2018-03-01T18:17:39.528Z,75.60
2018-03-01T18:20:07.116Z,75.60
2018-03-01T18:22:35.468Z,75.70
2018-03-01T18:25:03.066Z,76.20
2018-03-01T18:27:31.414Z,76.70
2018-03-01T18:29:59.003Z,76.70
2018-03-01T18:32:26.590Z,76.80
2018-03-01T18:34:54.939Z,76.90
2018-03-01T18:37:22.579Z,76.90
2018-03-01T18:39:50.163Z,77.00
2018-03-01T18:42:17.750Z,77.20
2018-03-01T18:44:45.330Z,77.40
2018-03-01T18:47:13.678Z,77.40
2018-03-01T18:49:41.267Z,77.40
2018-03-01T18:52:09.618Z,77.70
2018-03-01T18:54:37.213Z,77.70
2018-03-01T18:57:05.571Z,77.80
2018-03-01T18:59:33.155Z,77.80
2018-03-01T19:02:00.746Z,77.90
2018-03-01T19:04:28.328Z,78.20
2018-03-01T19:06:55.916Z,78.40
2018-03-01T19:09:23.503Z,78.40
2018-03-01T19:11:51.086Z,78.30
2018-03-01T19:14:19.455Z,78.70
2018-03-01T19:16:47.042Z,78.70
2018-03-01T19:19:15.395Z,79.10
2018-03-01T19:21:42.984Z,79.00
2018-03-01T19:24:11.335Z,79.70
2018-03-01T19:26:38.944Z,79.60
2018-03-01T19:29:06.532Z,79.90
2018-03-01T19:31:34.120Z,80.20
2018-03-01T19:34:01.716Z,80.30
2018-03-01T19:36:30.066Z,80.50
2018-03-01T19:38:58.258Z,80.50
2018-03-01T19:41:25.919Z,80.50
2018-03-01T19:43:53.502Z,80.40
2018-03-01T19:46:21.094Z,80.50
2018-03-01T19:48:48.678Z,80.80
2018-03-01T19:51:16.263Z,81.00
2018-03-01T19:53:43.846Z,81.00
2018-03-01T19:56:11.454Z,81.10
2018-03-01T19:58:39.043Z,81.10
2018-03-01T20:01:06.631Z,81.30
2018-03-01T20:03:34.219Z,81.90
2018-03-01T20:06:01.807Z,81.70
2018-03-01T20:08:30.158Z,82.30
2018-03-01T20:10:57.743Z,82.20
2018-03-01T20:13:26.097Z,82.60
2018-03-01T20:15:53.686Z,82.50
2018-03-01T20:18:22.170Z,83.10
2018-03-01T20:20:49.743Z,83.00
2018-03-01T20:23:18.091Z,82.70
2018-03-01T20:25:45.676Z,83.50
2018-03-01T20:28:13.276Z,82.70
2018-03-01T20:30:40.897Z,83.10
2018-03-01T20:33:08.495Z,83.20
2018-03-01T20:35:36.870Z,83.60
2018-03-01T20:38:04.554Z,83.60
2018-03-01T20:40:32.142Z,83.60
2018-03-01T20:42:59.730Z,83.60
2018-03-01T20:45:27.315Z,83.90
2018-03-01T20:47:54.911Z,84.80
2018-03-01T20:50:22.597Z,84.20
2018-03-01T20:52:50.198Z,84.40
2018-03-01T20:55:17.791Z,84.80
2018-03-01T20:57:46.147Z,85.10
2018-03-01T21:00:13.747Z,85.00
2018-03-01T21:02:41.336Z,85.60
2018-03-01T21:05:08.941Z,85.20
2018-03-01T21:07:36.535Z,85.90
2018-03-01T21:10:04.895Z,85.90
2018-03-01T21:12:32.482Z,85.90
2018-03-01T21:15:00.839Z,85.70
2018-03-01T21:17:28.440Z,86.30
2018-03-01T21:19:56.056Z,86.00
2018-03-01T21:22:24.463Z,86.20
2018-03-01T21:24:52.053Z,87.00
2018-03-01T21:27:19.679Z,87.70
2018-03-01T21:29:47.276Z,86.50
2018-03-01T21:32:15.683Z,86.30
2018-03-01T21:34:43.282Z,86.30
2018-03-01T21:37:10.921Z,86.70
2018-03-01T21:39:38.515Z,87.10
2018-03-01T21:42:06.130Z,86.80
2018-03-01T21:44:33.719Z,87.20
2018-03-01T21:47:07.171Z,87.30
2018-03-01T21:49:35.538Z,87.20
2018-03-01T21:52:03.130Z,87.20
2018-03-01T21:54:31.498Z,87.30
2018-03-01T21:56:59.856Z,87.70
2018-03-01T21:59:27.452Z,87.30
2018-03-01T22:01:55.807Z,87.60
2018-03-01T22:04:23.399Z,87.60
2018-03-01T22:06:51.750Z,88.60
2018-03-01T22:09:19.339Z,88.60
2018-03-01T22:11:46.928Z,88.70
2018-03-01T22:14:14.603Z,88.90
2018-03-01T22:16:42.195Z,89.00
2018-03-01T22:19:09.782Z,89.30
2018-03-01T22:21:37.387Z,88.70
2018-03-01T22:24:05.041Z,89.20
2018-03-01T22:26:33.401Z,89.40
2018-03-01T22:29:01.006Z,89.40
2018-03-01T22:31:28.651Z,89.50
2018-03-01T22:33:56.247Z,90.00
2018-03-01T22:36:23.839Z,89.70
2018-03-01T22:38:51.458Z,89.50
2018-03-01T22:41:19.055Z,89.40
2018-03-01T22:43:46.643Z,89.20
2018-03-01T22:46:14.235Z,89.70
2018-03-01T22:48:42.590Z,89.70
2018-03-01T22:51:10.196Z,89.60
2018-03-01T22:53:38.550Z,89.90
2018-03-01T22:56:06.139Z,89.80
2018-03-01T22:58:34.507Z,90.10
2018-03-01T23:01:02.127Z,90.10
2018-03-01T23:03:29.731Z,90.20
2018-03-01T23:05:57.325Z,90.20
2018-03-01T23:08:25.020Z,90.40
2018-03-01T23:10:52.612Z,90.30
2018-03-01T23:13:20.229Z,90.40
2018-03-01T23:15:47.819Z,90.30
2018-03-01T23:18:15.411Z,90.30
2018-03-01T23:20:43.003Z,90.40
2018-03-01T23:23:11.358Z,90.30
2018-03-01T23:25:39.008Z,90.30
2018-03-01T23:28:06.594Z,90.40
2018-03-01T23:30:34.195Z,90.50
2018-03-01T23:33:01.850Z,90.50
2018-03-01T23:35:30.206Z,90.50
2018-03-01T23:37:57.794Z,90.50
2018-03-01T23:40:26.156Z,90.60
2018-03-01T23:42:53.743Z,90.60
2018-03-01T23:45:22.122Z,90.60
2018-03-01T23:47:50.479Z,90.60
2018-03-01T23:50:18.067Z,90.60
2018-03-01T23:52:46.423Z,90.70
2018-03-01T23:55:14.015Z,90.70
2018-03-01T23:57:42.370Z,91.20
